createdAt,value
2023-07-24T00:02:05.152Z,21.96
2023-07-24T00:04:32.598Z,21.97
2023-07-24T00:06:59.456Z,22.17
2023-07-24T00:09:26.030Z,21.56
2023-07-24T00:11:52.766Z,21.76
2023-07-24T00:14:19.323Z,22.20
2023-07-24T00:16:45.993Z,21.95
2023-07-24T00:19:12.746Z,21.98
2023-07-24T00:21:39.355Z,22.02
2023-07-24T00:24:06.120Z,21.72
2023-07-24T00:26:32.902Z,22.20
2023-07-24T00:29:00.432Z,21.89
2023-07-24T00:31:27.119Z,21.91
2023-07-24T00:33:53.728Z,21.80
2023-07-24T00:36:20.316Z,21.65
2023-07-24T00:38:46.891Z,22.00
2023-07-24T00:41:15.060Z,21.89
2023-07-24T00:43:42.355Z,21.70
2023-07-24T00:46:10.551Z,21.86
2023-07-24T00:48:37.215Z,21.82
2023-07-24T00:51:03.857Z,22.23
2023-07-24T00:53:30.489Z,21.94
2023-07-24T00:55:57.230Z,21.97
2023-07-24T00:58:23.894Z,21.62
2023-07-24T01:00:51.161Z,22.13
2023-07-24T01:03:17.931Z,22.12
2023-07-24T01:05:44.535Z,22.06
2023-07-24T01:08:12.577Z,22.19
2023-07-24T01:10:39.211Z,22.14
2023-07-24T01:13:25.713Z,21.73
2023-07-24T01:15:52.280Z,22.13
2023-07-24T01:18:19.476Z,21.88
2023-07-24T01:20:51.618Z,22.16
2023-07-24T01:23:35.683Z,21.99
2023-07-24T01:26:05.691Z,21.97
2023-07-24T01:28:32.341Z,21.83
2023-07-24T01:30:59.004Z,22.11
2023-07-24T01:33:25.986Z,22.20
2023-07-24T01:35:55.894Z,22.20
2023-07-24T01:38:22.903Z,21.88
2023-07-24T01:40:49.648Z,21.95
2023-07-24T01:43:16.367Z,22.00
2023-07-24T01:45:42.906Z,21.99
2023-07-24T01:48:09.593Z,21.78
2023-07-24T01:50:36.204Z,21.72
2023-07-24T01:53:03.357Z,21.98
2023-07-24T01:55:29.957Z,21.82
2023-07-24T01:57:56.658Z,21.80
2023-07-24T02:00:23.281Z,21.79
2023-07-24T02:02:57.672Z,21.79
2023-07-24T02:05:24.508Z,21.70
2023-07-24T02:07:51.090Z,22.05
2023-07-24T02:10:17.766Z,21.77
2023-07-24T02:12:45.435Z,21.98
2023-07-24T02:15:12.067Z,21.81
2023-07-24T02:17:40.613Z,21.69
2023-07-24T02:20:07.672Z,21.68
2023-07-24T02:22:34.519Z,21.83
2023-07-24T02:25:01.117Z,21.60
2023-07-24T02:27:29.355Z,21.44
2023-07-24T02:29:58.189Z,21.73
2023-07-24T02:32:24.806Z,21.79
2023-07-24T02:34:51.973Z,21.98
2023-07-24T02:37:18.612Z,21.50
2023-07-24T02:39:45.357Z,21.95
2023-07-24T02:42:11.962Z,21.63
2023-07-24T02:44:39.355Z,21.91
2023-07-24T02:47:06.020Z,21.69
2023-07-24T02:49:34.440Z,21.77
2023-07-24T02:52:01.103Z,21.88
2023-07-24T02:54:28.388Z,21.47
2023-07-24T02:56:55.009Z,21.71
2023-07-24T02:59:21.696Z,21.58
2023-07-24T03:01:48.670Z,21.72
2023-07-24T03:04:15.272Z,21.81
2023-07-24T03:06:41.926Z,21.68
2023-07-24T03:09:08.587Z,21.77
2023-07-24T03:11:35.198Z,22.11
2023-07-24T03:14:03.064Z,22.12
2023-07-24T03:16:30.016Z,21.96
2023-07-24T03:18:57.157Z,21.98
2023-07-24T03:21:23.784Z,21.96
2023-07-24T03:23:50.435Z,22.00
2023-07-24T03:26:16.976Z,22.15
2023-07-24T03:28:43.618Z,22.17
2023-07-24T03:31:10.278Z,21.79
2023-07-24T03:33:37.021Z,21.94
2023-07-24T03:36:03.675Z,22.06
2023-07-24T03:38:30.326Z,22.02
2023-07-24T03:40:56.889Z,21.68
2023-07-24T03:43:23.583Z,22.05
2023-07-24T03:45:51.870Z,21.83
2023-07-24T03:48:18.502Z,22.01
2023-07-24T03:50:45.061Z,21.52
2023-07-24T03:53:11.693Z,22.05
2023-07-24T03:55:38.280Z,21.86
2023-07-24T03:58:04.964Z,21.78
2023-07-24T04:00:31.632Z,21.58
2023-07-24T04:02:58.312Z,21.95
2023-07-24T04:05:24.985Z,21.94
2023-07-24T04:07:51.621Z,21.85
2023-07-24T04:10:18.191Z,21.58
2023-07-24T04:12:44.800Z,21.53
2023-07-24T04:15:11.383Z,21.84
2023-07-24T04:17:39.954Z,21.94
2023-07-24T04:20:06.892Z,21.90
2023-07-24T04:22:33.535Z,21.49
2023-07-24T04:25:00.075Z,21.52
2023-07-24T04:27:26.697Z,21.84
2023-07-24T04:29:53.277Z,21.83
2023-07-24T04:32:20.109Z,21.68
2023-07-24T04:34:46.738Z,21.83
2023-07-24T04:37:13.420Z,21.61
2023-07-24T04:39:40.423Z,22.11
2023-07-24T04:42:07.550Z,22.30
2023-07-24T04:44:34.133Z,22.40
2023-07-24T04:47:00.867Z,22.02
2023-07-24T04:49:29.868Z,21.94
2023-07-24T04:51:56.549Z,21.88
2023-07-24T04:54:23.126Z,22.19
2023-07-24T04:56:49.846Z,21.80
2023-07-24T04:59:16.379Z,22.34
2023-07-24T05:01:43.387Z,22.08
2023-07-24T05:04:10.036Z,22.15
2023-07-24T05:06:38.355Z,22.12
2023-07-24T05:09:05.108Z,21.98
2023-07-24T05:11:31.722Z,22.17
2023-07-24T05:13:58.324Z,22.47
2023-07-24T05:16:25.012Z,22.15
2023-07-24T05:18:51.636Z,21.96
2023-07-24T05:21:18.223Z,22.30
2023-07-24T05:23:44.806Z,22.07
2023-07-24T05:26:11.388Z,21.99
2023-07-24T05:28:37.972Z,22.38
2023-07-24T05:31:05.330Z,22.55
2023-07-24T05:33:32.818Z,22.80
2023-07-24T05:36:00.589Z,22.57
2023-07-24T05:38:27.750Z,22.31
2023-07-24T05:40:57.920Z,22.71
2023-07-24T05:43:24.851Z,22.99
2023-07-24T05:45:54.613Z,22.98
2023-07-24T05:48:21.689Z,22.62
2023-07-24T05:50:48.857Z,22.86
2023-07-24T05:53:15.873Z,22.72
2023-07-24T05:55:43.558Z,22.61
2023-07-24T05:58:10.631Z,22.55
2023-07-24T06:00:37.642Z,22.89
2023-07-24T06:03:07.047Z,22.88
2023-07-24T06:05:34.960Z,22.79
2023-07-24T06:08:01.521Z,22.80
2023-07-24T06:10:28.240Z,23.28
2023-07-24T06:12:54.855Z,23.18
2023-07-24T06:15:21.607Z,22.93
2023-07-24T06:17:49.080Z,23.43
2023-07-24T06:20:16.994Z,23.14
2023-07-24T06:22:43.579Z,22.91
2023-07-24T06:25:10.212Z,23.43
2023-07-24T06:27:36.785Z,23.48
2023-07-24T06:30:14.272Z,23.57
2023-07-24T06:32:42.843Z,23.89
2023-07-24T06:35:09.536Z,23.81
2023-07-24T06:37:36.197Z,23.31
2023-07-24T06:40:02.833Z,23.46
2023-07-24T06:42:29.500Z,23.29
2023-07-24T06:44:56.055Z,23.46
2023-07-24T06:47:22.807Z,23.51
2023-07-24T06:49:49.399Z,23.44
2023-07-24T06:52:16.097Z,23.52
2023-07-24T06:54:43.061Z,23.72
2023-07-24T06:57:09.761Z,23.49
2023-07-24T06:59:36.504Z,22.96
2023-07-24T07:02:03.305Z,23.61
2023-07-24T07:04:29.907Z,23.70
2023-07-24T07:06:56.594Z,23.76
2023-07-24T07:09:23.183Z,24.01
2023-07-24T07:11:49.787Z,23.77
2023-07-24T07:14:16.424Z,23.85
2023-07-24T07:16:43.131Z,23.43
2023-07-24T07:19:10.733Z,23.76
2023-07-24T07:21:37.520Z,23.92
2023-07-24T07:24:04.360Z,23.96
2023-07-24T07:26:31.526Z,24.35
2023-07-24T07:28:58.425Z,24.19
2023-07-24T07:31:25.117Z,24.11
2023-07-24T07:33:51.960Z,24.06
2023-07-24T07:36:23.834Z,24.88
2023-07-24T07:38:50.490Z,24.49
2023-07-24T07:41:17.128Z,24.29
2023-07-24T07:43:43.761Z,24.08
2023-07-24T07:46:10.328Z,24.12
2023-07-24T07:48:36.946Z,24.13
2023-07-24T07:51:03.541Z,24.32
2023-07-24T07:53:30.184Z,24.12
2023-07-24T07:55:58.146Z,24.58
2023-07-24T07:58:25.082Z,24.42
2023-07-24T08:00:51.673Z,24.78
2023-07-24T08:03:18.425Z,24.58
2023-07-24T08:05:45.056Z,24.68
2023-07-24T08:08:11.689Z,25.14
2023-07-24T08:10:41.465Z,25.19
2023-07-24T08:13:10.854Z,25.02
2023-07-24T08:15:38.193Z,25.09
2023-07-24T08:18:07.085Z,24.90
2023-07-24T08:20:35.983Z,25.06
2023-07-24T08:23:02.652Z,25.31
2023-07-24T08:25:29.220Z,25.11
2023-07-24T08:30:27.788Z,25.12
2023-07-24T08:32:55.234Z,25.73
2023-07-24T08:35:22.023Z,26.09
2023-07-24T08:37:48.595Z,26.17
2023-07-24T08:40:16.521Z,26.12
2023-07-24T08:42:44.363Z,26.21
2023-07-24T08:45:14.845Z,26.28
2023-07-24T08:47:43.057Z,26.34
2023-07-24T08:50:12.282Z,26.38
2023-07-24T08:52:39.854Z,26.49
2023-07-24T08:55:06.959Z,26.57
2023-07-24T08:57:33.675Z,26.54
2023-07-24T09:00:01.985Z,26.54
2023-07-24T09:02:28.646Z,26.47
2023-07-24T09:04:55.228Z,26.73
2023-07-24T09:07:21.890Z,26.73
2023-07-24T09:09:50.274Z,26.64
2023-07-24T09:12:17.242Z,26.11
2023-07-24T09:14:46.266Z,26.60
2023-07-24T09:17:13.088Z,25.67
2023-07-24T09:19:39.790Z,25.84
2023-07-24T09:22:14.094Z,26.24
2023-07-24T09:24:57.086Z,25.98
2023-07-24T09:27:28.340Z,25.90
2023-07-24T09:29:56.372Z,25.74
2023-07-24T09:32:23.672Z,24.85
2023-07-24T09:34:52.159Z,24.39
2023-07-24T09:37:24.653Z,24.04
2023-07-24T09:39:51.274Z,24.42
2023-07-24T09:42:17.865Z,24.61
2023-07-24T09:44:44.470Z,25.10
2023-07-24T09:47:31.312Z,25.23
2023-07-24T09:49:57.995Z,25.12
2023-07-24T09:52:25.545Z,24.96
2023-07-24T09:54:52.110Z,24.84
2023-07-24T09:57:21.739Z,24.69
2023-07-24T09:59:49.687Z,24.76
2023-07-24T10:02:16.728Z,24.32
2023-07-24T10:04:44.209Z,24.01
2023-07-24T10:07:10.986Z,23.94
2023-07-24T10:09:38.316Z,24.17
2023-07-24T10:12:05.212Z,24.27
2023-07-24T10:14:32.198Z,24.28
2023-07-24T10:16:58.925Z,24.40
2023-07-24T10:19:25.600Z,24.64
2023-07-24T10:21:52.652Z,24.85
2023-07-24T10:24:35.455Z,25.18
2023-07-24T10:27:06.674Z,25.03
2023-07-24T10:29:35.532Z,25.19
2023-07-24T10:32:02.466Z,25.58
2023-07-24T10:34:39.502Z,25.66
2023-07-24T10:37:08.669Z,25.84
2023-07-24T10:39:39.404Z,25.53
2023-07-24T10:42:06.923Z,25.10
2023-07-24T10:44:33.608Z,25.05
2023-07-24T10:47:00.261Z,25.35
2023-07-24T10:49:26.808Z,25.65
2023-07-24T10:51:57.049Z,26.28
2023-07-24T10:54:23.680Z,26.37
2023-07-24T10:56:52.124Z,26.87
2023-07-24T10:59:18.881Z,27.12
2023-07-24T11:01:45.576Z,27.54
2023-07-24T11:04:13.735Z,27.38
2023-07-24T11:06:40.929Z,27.39
2023-07-24T11:09:07.547Z,27.65
2023-07-24T11:11:35.629Z,27.39
2023-07-24T11:14:03.278Z,27.79
2023-07-24T11:16:32.629Z,28.18
2023-07-24T11:18:59.568Z,28.17
2023-07-24T11:21:26.547Z,28.92
2023-07-24T11:23:54.084Z,28.23
2023-07-24T11:26:21.936Z,27.98
2023-07-24T11:28:50.557Z,28.90
2023-07-24T11:31:20.500Z,30.22
2023-07-24T11:33:48.106Z,29.55
2023-07-24T11:36:15.295Z,28.91
2023-07-24T11:38:41.965Z,28.88
2023-07-24T11:41:09.441Z,29.06
2023-07-24T11:43:36.086Z,28.81
2023-07-24T11:46:02.719Z,29.45
2023-07-24T11:48:29.350Z,29.12
2023-07-24T11:50:56.675Z,28.56
2023-07-24T11:53:25.018Z,28.32
2023-07-24T11:55:55.929Z,27.91
2023-07-24T11:58:23.234Z,28.59
2023-07-24T12:00:52.953Z,28.66
2023-07-24T12:03:23.646Z,29.24
2023-07-24T12:05:51.716Z,28.69
2023-07-24T12:08:20.324Z,27.78
2023-07-24T12:10:46.937Z,29.46
2023-07-24T12:13:13.741Z,31.24
2023-07-24T12:15:40.377Z,32.76
2023-07-24T12:18:07.643Z,33.05
2023-07-24T12:20:35.143Z,33.26
2023-07-24T12:23:01.799Z,33.40
2023-07-24T12:25:28.416Z,33.54
2023-07-24T12:27:55.024Z,33.40
2023-07-24T12:30:21.602Z,34.30
2023-07-24T12:32:48.236Z,33.02
2023-07-24T12:35:17.460Z,34.04
2023-07-24T12:37:44.589Z,32.95
2023-07-24T12:40:11.428Z,30.87
2023-07-24T12:42:38.030Z,29.94
2023-07-24T12:45:05.062Z,30.56
2023-07-24T12:47:32.414Z,29.91
2023-07-24T12:50:00.259Z,29.21
2023-07-24T12:52:27.189Z,30.08
2023-07-24T12:55:01.593Z,29.43
2023-07-24T12:57:29.186Z,30.34
2023-07-24T12:59:55.931Z,30.48
2023-07-24T13:02:25.293Z,30.25
2023-07-24T13:04:52.061Z,30.23
2023-07-24T13:07:18.713Z,29.93
2023-07-24T13:09:45.313Z,30.72
2023-07-24T13:12:12.109Z,30.82
2023-07-24T13:14:40.327Z,30.03
2023-07-24T13:17:09.440Z,29.67
2023-07-24T13:19:36.126Z,28.99
2023-07-24T13:22:02.782Z,28.75
2023-07-24T13:24:29.431Z,28.48
2023-07-24T13:26:56.142Z,28.32
2023-07-24T13:29:25.299Z,28.28
2023-07-24T13:31:55.603Z,28.12
2023-07-24T13:34:22.849Z,27.64
2023-07-24T13:36:49.606Z,27.45
2023-07-24T13:39:16.182Z,27.10
2023-07-24T13:41:42.996Z,27.11
2023-07-24T13:44:10.003Z,27.03
2023-07-24T13:46:39.679Z,26.78
2023-07-24T13:49:07.091Z,26.43
2023-07-24T13:51:33.703Z,26.31
2023-07-24T13:54:02.629Z,26.15
2023-07-24T13:56:32.397Z,26.14
2023-07-24T13:58:59.176Z,26.45
2023-07-24T14:01:26.118Z,26.24
2023-07-24T14:03:53.026Z,26.16
2023-07-24T14:06:19.868Z,25.57
2023-07-24T14:08:46.440Z,25.55
2023-07-24T14:11:13.035Z,25.27
2023-07-24T14:13:39.610Z,25.13
2023-07-24T14:16:06.395Z,25.15
2023-07-24T14:18:32.998Z,24.85
2023-07-24T14:21:00.748Z,24.77
2023-07-24T14:23:27.492Z,24.79
2023-07-24T14:25:54.103Z,24.94
2023-07-24T14:28:20.716Z,25.30
2023-07-24T14:30:47.294Z,24.49
2023-07-24T14:33:13.872Z,24.69
2023-07-24T14:35:40.538Z,24.37
2023-07-24T14:38:07.185Z,25.08
2023-07-24T14:40:33.844Z,25.64
2023-07-24T14:43:00.429Z,25.61
2023-07-24T14:45:27.124Z,25.32
2023-07-24T14:47:53.872Z,25.75
2023-07-24T14:50:20.617Z,25.80
2023-07-24T14:52:47.227Z,25.65
2023-07-24T14:55:14.375Z,25.67
2023-07-24T14:57:40.961Z,25.41
2023-07-24T15:00:08.172Z,25.10
2023-07-24T15:02:34.888Z,24.79
2023-07-24T15:05:01.587Z,24.58
2023-07-24T15:07:28.717Z,24.47
2023-07-24T15:09:55.788Z,24.64
2023-07-24T15:12:22.489Z,24.12
2023-07-24T15:14:49.151Z,24.14
2023-07-24T15:17:15.988Z,24.45
2023-07-24T15:19:42.610Z,24.32
2023-07-24T15:22:09.201Z,24.00
2023-07-24T15:24:35.862Z,23.98
2023-07-24T15:27:09.102Z,23.84
2023-07-24T15:29:36.518Z,23.88
2023-07-24T15:32:03.857Z,23.91
2023-07-24T15:34:30.787Z,23.56
2023-07-24T15:36:57.534Z,23.39
2023-07-24T15:39:24.379Z,23.04
2023-07-24T15:41:51.021Z,22.58
2023-07-24T15:44:17.763Z,22.33
2023-07-24T15:46:45.243Z,22.08
2023-07-24T15:49:12.038Z,21.61
2023-07-24T15:51:41.172Z,21.65
2023-07-24T15:54:09.260Z,21.06
2023-07-24T15:56:35.905Z,21.05
2023-07-24T15:59:02.593Z,21.09
2023-07-24T16:01:29.692Z,21.40
2023-07-24T16:03:56.841Z,21.31
2023-07-24T16:06:23.535Z,21.46
2023-07-24T16:08:50.128Z,21.51
2023-07-24T16:11:16.706Z,21.28
2023-07-24T16:13:45.152Z,20.88
2023-07-24T16:16:15.196Z,20.92
2023-07-24T16:18:42.444Z,21.24
2023-07-24T16:21:09.128Z,21.32
2023-07-24T16:23:35.919Z,20.59
2023-07-24T16:26:02.785Z,20.36
2023-07-24T16:28:29.463Z,20.33
2023-07-24T16:30:58.777Z,19.82
2023-07-24T16:33:25.843Z,20.05
2023-07-24T16:35:53.096Z,20.35
2023-07-24T16:38:19.805Z,21.03
2023-07-24T16:40:46.399Z,21.20
2023-07-24T16:43:13.256Z,21.93
2023-07-24T16:45:39.957Z,21.87
2023-07-24T16:48:07.200Z,21.44
2023-07-24T16:50:36.218Z,22.24
2023-07-24T16:53:03.380Z,22.53
2023-07-24T16:55:30.592Z,22.57
2023-07-24T16:57:57.570Z,21.25
2023-07-24T17:00:24.315Z,21.99
2023-07-24T17:02:51.145Z,21.86
2023-07-24T17:05:17.947Z,22.94
2023-07-24T17:07:44.600Z,22.68
2023-07-24T17:10:11.344Z,22.38
2023-07-24T17:12:38.000Z,22.68
2023-07-24T17:15:04.799Z,23.32
2023-07-24T17:17:31.506Z,23.64
2023-07-24T17:19:58.167Z,22.69
2023-07-24T17:22:24.818Z,22.83
2023-07-24T17:24:51.626Z,22.98
2023-07-24T17:27:18.357Z,22.79
2023-07-24T17:29:45.135Z,22.17
2023-07-24T17:32:13.078Z,22.06
2023-07-24T17:34:40.035Z,21.61
2023-07-24T17:37:07.364Z,21.92
2023-07-24T17:39:34.130Z,21.29
2023-07-24T17:42:00.836Z,20.51
2023-07-24T17:44:27.477Z,21.12
2023-07-24T17:46:54.312Z,21.42
2023-07-24T17:49:21.115Z,21.49
2023-07-24T17:51:47.757Z,21.31
2023-07-24T17:54:14.313Z,21.65
2023-07-24T17:56:41.587Z,21.13
2023-07-24T17:59:08.189Z,20.75
2023-07-24T18:01:36.269Z,20.80
2023-07-24T18:04:02.953Z,21.14
2023-07-24T18:06:29.685Z,20.93
2023-07-24T18:08:56.362Z,21.35
2023-07-24T18:11:23.091Z,21.24
2023-07-24T18:13:49.642Z,21.31
2023-07-24T18:16:17.428Z,20.53
2023-07-24T18:18:44.103Z,21.20
2023-07-24T18:21:10.752Z,20.29
2023-07-24T18:23:37.407Z,20.34
2023-07-24T18:26:04.273Z,20.60
2023-07-24T18:28:30.869Z,20.41
2023-07-24T18:30:57.551Z,20.79
2023-07-24T18:33:24.171Z,20.66
2023-07-24T18:35:53.393Z,20.64
2023-07-24T18:38:21.397Z,20.66
2023-07-24T18:40:48.137Z,20.80
2023-07-24T18:43:14.744Z,20.79
2023-07-24T18:45:41.423Z,20.03
2023-07-24T18:48:10.373Z,20.03
2023-07-24T18:50:37.031Z,20.33
2023-07-24T18:53:03.761Z,19.99
2023-07-24T18:55:30.488Z,20.38
2023-07-24T18:57:57.084Z,20.22
2023-07-24T19:00:23.633Z,19.69
2023-07-24T19:02:50.326Z,19.52
2023-07-24T19:05:16.974Z,19.58
2023-07-24T19:07:43.660Z,19.82
2023-07-24T19:10:11.392Z,19.63
2023-07-24T19:12:39.946Z,19.86
2023-07-24T19:15:09.489Z,20.19
2023-07-24T19:17:36.228Z,20.24
2023-07-24T19:20:02.940Z,20.11
2023-07-24T19:22:29.564Z,19.90
2023-07-24T19:24:56.283Z,20.16
2023-07-24T19:27:23.573Z,20.11
2023-07-24T19:29:51.195Z,19.96
2023-07-24T19:32:18.154Z,19.86
2023-07-24T19:34:45.169Z,19.97
2023-07-24T19:37:12.124Z,20.19
2023-07-24T19:39:41.993Z,19.96
2023-07-24T19:42:12.259Z,20.18
2023-07-24T19:44:39.019Z,20.01
2023-07-24T19:47:05.761Z,20.25
2023-07-24T19:49:35.908Z,20.16
2023-07-24T19:52:03.111Z,20.07
2023-07-24T19:54:30.291Z,20.13
2023-07-24T19:56:57.120Z,20.07
2023-07-24T19:59:23.870Z,19.91
2023-07-24T20:01:50.500Z,20.05
2023-07-24T20:04:17.176Z,19.70
2023-07-24T20:06:43.808Z,19.76
2023-07-24T20:09:10.396Z,19.98
2023-07-24T20:11:39.883Z,19.99
2023-07-24T20:14:06.465Z,20.07
2023-07-24T20:16:33.223Z,19.72
2023-07-24T20:18:59.848Z,19.92
2023-07-24T20:21:26.650Z,19.84
2023-07-24T20:23:53.305Z,19.98
2023-07-24T20:26:21.141Z,20.03
2023-07-24T20:28:48.155Z,20.18
2023-07-24T20:31:14.813Z,19.81
2023-07-24T20:33:41.390Z,20.05
2023-07-24T20:36:08.620Z,20.23
2023-07-24T20:38:35.285Z,20.17
2023-07-24T20:41:02.086Z,20.25
2023-07-24T20:43:29.199Z,20.34
2023-07-24T20:45:55.896Z,20.15
2023-07-24T20:48:22.968Z,20.11
2023-07-24T20:50:49.798Z,20.19
2023-07-24T20:53:16.384Z,20.06
2023-07-24T20:55:43.018Z,20.00
2023-07-24T20:58:10.427Z,19.81
2023-07-24T21:00:37.038Z,19.97
2023-07-24T21:03:03.739Z,19.97
2023-07-24T21:05:30.552Z,19.98
2023-07-24T21:07:59.850Z,19.98
2023-07-24T21:10:26.530Z,19.71
2023-07-24T21:12:53.085Z,19.79
2023-07-24T21:15:19.731Z,19.91
2023-07-24T21:17:46.356Z,19.83
2023-07-24T21:20:13.327Z,19.79
2023-07-24T21:22:39.983Z,19.73
2023-07-24T21:25:06.837Z,19.62
2023-07-24T21:27:33.420Z,19.64
2023-07-24T21:30:00.086Z,19.66
2023-07-24T21:32:26.702Z,19.58
2023-07-24T21:34:53.346Z,19.49
2023-07-24T21:37:19.952Z,19.49
2023-07-24T21:39:46.811Z,19.48
2023-07-24T21:42:13.361Z,19.47
2023-07-24T21:44:40.013Z,19.51
2023-07-24T21:47:06.757Z,19.39
2023-07-24T21:49:33.422Z,19.29
2023-07-24T21:52:01.433Z,19.28
2023-07-24T21:54:28.110Z,19.34
2023-07-24T21:56:54.714Z,19.41
2023-07-24T21:59:21.405Z,19.32
2023-07-24T22:01:47.986Z,19.12
2023-07-24T22:04:15.349Z,19.04
2023-07-24T22:06:41.975Z,19.02
2023-07-24T22:09:08.638Z,18.85
2023-07-24T22:11:36.906Z,18.89
2023-07-24T22:14:03.680Z,18.97
2023-07-24T22:16:30.311Z,18.68
2023-07-24T22:18:56.941Z,18.86
2023-07-24T22:21:23.543Z,18.98
2023-07-24T22:23:50.173Z,18.80
2023-07-24T22:26:16.879Z,18.66
2023-07-24T22:28:43.516Z,18.70
2023-07-24T22:31:10.835Z,18.70
2023-07-24T22:33:37.683Z,18.56
2023-07-24T22:36:04.572Z,18.55
2023-07-24T22:38:31.279Z,18.59
2023-07-24T22:40:57.847Z,18.64
2023-07-24T22:43:24.494Z,18.57
2023-07-24T22:45:51.080Z,18.40
2023-07-24T22:48:17.783Z,18.39
2023-07-24T22:50:44.484Z,18.32
2023-07-24T22:53:11.086Z,18.21
2023-07-24T22:55:37.621Z,18.17
2023-07-24T22:58:04.721Z,18.08
2023-07-24T23:00:31.330Z,18.23
2023-07-24T23:02:58.046Z,18.32
2023-07-24T23:05:24.636Z,18.17
2023-07-24T23:07:55.949Z,18.32
2023-07-24T23:10:22.806Z,18.19
2023-07-24T23:12:49.461Z,18.02
2023-07-24T23:15:16.093Z,18.18
2023-07-24T23:17:42.702Z,18.12
2023-07-24T23:20:09.572Z,18.27
2023-07-24T23:22:36.182Z,18.16
2023-07-24T23:25:02.814Z,18.15
2023-07-24T23:27:29.420Z,18.12
2023-07-24T23:29:56.017Z,18.12
2023-07-24T23:32:22.675Z,17.99
2023-07-24T23:34:49.355Z,18.16
2023-07-24T23:37:15.935Z,18.20
2023-07-24T23:39:42.597Z,18.12
2023-07-24T23:42:09.219Z,17.96
2023-07-24T23:44:35.833Z,18.05
2023-07-24T23:47:02.438Z,18.21
2023-07-24T23:49:29.094Z,18.07
2023-07-24T23:51:55.657Z,18.22
2023-07-24T23:54:22.248Z,18.03
2023-07-24T23:56:48.869Z,18.16
2023-07-24T23:59:15.469Z,17.96
